createdAt,value
2022-09-26T00:01:26.995Z,97766.09
2022-09-26T00:03:59.858Z,97765.06
2022-09-26T00:06:26.899Z,97753.13
2022-09-26T00:08:54.098Z,97765.34
2022-09-26T00:11:26.991Z,97736.16
2022-09-26T00:13:56.731Z,97770.13
2022-09-26T00:16:23.306Z,97775.50
2022-09-26T00:18:51.782Z,97758.34
2022-09-26T00:21:19.163Z,97765.06
2022-09-26T00:23:47.562Z,97672.66
2022-09-26T00:26:16.110Z,97755.00
2022-09-26T00:28:42.699Z,97759.50
2022-09-26T00:31:12.889Z,97753.59
2022-09-26T00:33:39.481Z,97756.69
2022-09-26T00:36:06.676Z,97761.28
2022-09-26T00:38:33.496Z,97759.03
2022-09-26T00:41:00.048Z,97756.59
2022-09-26T00:43:33.690Z,97752.53
2022-09-26T00:46:06.467Z,97747.56
2022-09-26T00:48:35.812Z,97752.06
2022-09-26T00:51:03.144Z,97748.94
2022-09-26T00:53:35.563Z,97720.88
2022-09-26T00:56:09.371Z,97733.50
2022-09-26T00:58:40.956Z,97726.84
2022-09-26T01:01:07.951Z,97722.63
2022-09-26T01:03:36.150Z,97713.16
2022-09-26T01:06:02.736Z,97719.97
2022-09-26T01:08:34.854Z,97712.06
2022-09-26T01:11:02.404Z,97719.66
2022-09-26T01:13:32.982Z,97684.06
2022-09-26T01:15:59.371Z,97710.16
2022-09-26T01:18:26.605Z,97713.03
2022-09-26T01:21:11.871Z,97552.28
2022-09-26T01:24:16.605Z,97703.38
2022-09-26T01:26:58.183Z,97697.75
2022-09-26T01:30:05.383Z,97693.69
2022-09-26T01:32:57.123Z,97694.91
2022-09-26T01:35:26.896Z,97697.22
2022-09-26T01:38:21.432Z,97703.13
2022-09-26T01:41:08.054Z,97680.34
2022-09-26T01:43:41.542Z,97686.63
2022-09-26T01:46:29.206Z,97689.81
2022-09-26T01:49:05.563Z,97696.00
2022-09-26T01:51:48.848Z,97690.84
2022-09-26T01:54:23.318Z,97668.41
2022-09-26T01:56:53.093Z,97685.66
2022-09-26T01:59:30.328Z,97690.19
2022-09-26T02:02:06.807Z,97685.41
2022-09-26T02:04:38.626Z,97680.16
2022-09-26T02:07:16.669Z,97675.03
2022-09-26T02:09:52.159Z,97675.41
2022-09-26T02:12:26.125Z,97668.81
2022-09-26T02:14:56.152Z,97674.63
2022-09-26T02:17:28.333Z,97671.56
2022-09-26T02:19:56.304Z,97662.25
2022-09-26T02:22:28.950Z,97656.66
2022-09-26T02:24:55.388Z,97649.00
2022-09-26T02:27:22.053Z,97643.25
2022-09-26T02:29:48.476Z,97630.63
2022-09-26T02:32:26.983Z,97628.25
2022-09-26T02:34:55.531Z,97622.16
2022-09-26T02:37:24.142Z,97614.31
2022-09-26T02:39:52.588Z,97618.53
2022-09-26T02:42:36.472Z,97631.56
2022-09-26T02:45:41.714Z,97618.09
2022-09-26T02:48:23.591Z,97607.94
2022-09-26T02:51:01.810Z,97603.78
2022-09-26T02:53:37.737Z,97607.88
2022-09-26T02:56:11.286Z,97613.91
2022-09-26T02:58:53.757Z,97614.31
2022-09-26T03:01:53.922Z,97601.38
2022-09-26T03:04:24.127Z,97591.69
2022-09-26T03:06:55.785Z,97561.00
2022-09-26T03:09:24.919Z,97587.56
2022-09-26T03:11:53.573Z,97581.53
2022-09-26T03:14:21.109Z,97583.94
2022-09-26T03:16:49.418Z,97581.53
2022-09-26T03:19:23.614Z,97573.88
2022-09-26T03:21:50.668Z,97577.72
2022-09-26T03:24:17.387Z,97572.88
2022-09-26T03:26:45.242Z,97575.28
2022-09-26T03:29:11.692Z,97568.63
2022-09-26T03:31:38.375Z,97565.34
2022-09-26T03:34:06.360Z,97565.53
2022-09-26T03:36:32.883Z,97564.13
2022-09-26T03:39:01.779Z,97562.53
2022-09-26T03:41:57.525Z,97555.59
2022-09-26T03:44:29.501Z,97549.00
2022-09-26T03:47:02.304Z,97541.81
2022-09-26T03:49:29.074Z,97531.72
2022-09-26T03:51:55.530Z,97551.41
2022-09-26T03:54:21.953Z,97531.97
2022-09-26T03:56:48.784Z,97530.09
2022-09-26T03:59:16.759Z,97531.31
2022-09-26T04:01:44.941Z,97525.53
2022-09-26T04:04:15.123Z,97427.97
2022-09-26T04:06:44.711Z,97513.69
2022-09-26T04:09:16.605Z,97512.22
2022-09-26T04:11:46.604Z,97490.78
2022-09-26T04:14:13.140Z,97510.41
2022-09-26T04:16:40.528Z,97518.56
2022-09-26T04:19:15.365Z,97503.91
2022-09-26T04:21:42.288Z,97501.44
2022-09-26T04:24:14.452Z,97509.38
2022-09-26T04:26:42.063Z,97507.97
2022-09-26T04:29:09.021Z,97499.06
2022-09-26T04:31:51.879Z,97486.19
2022-09-26T04:34:27.269Z,97464.13
2022-09-26T04:36:54.402Z,97483.97
2022-09-26T04:39:20.987Z,97474.56
2022-09-26T04:41:47.988Z,97476.06
2022-09-26T04:44:15.135Z,97482.00
2022-09-26T04:46:41.899Z,97471.22
2022-09-26T04:49:09.401Z,97471.16
2022-09-26T04:51:36.975Z,97467.28
2022-09-26T04:54:04.313Z,97465.44
2022-09-26T04:56:36.277Z,97461.81
2022-09-26T04:59:05.334Z,97459.16
2022-09-26T05:01:41.648Z,97448.41
2022-09-26T05:04:13.649Z,97450.25
2022-09-26T05:06:41.404Z,97452.69
2022-09-26T05:09:14.238Z,97450.56
2022-09-26T05:11:47.595Z,97443.97
2022-09-26T05:14:14.565Z,97439.81
2022-09-26T05:16:41.345Z,97448.75
2022-09-26T05:19:12.008Z,97433.44
2022-09-26T05:21:46.394Z,97437.47
2022-09-26T05:24:31.498Z,97434.34
2022-09-26T05:26:59.667Z,97437.00
2022-09-26T05:29:26.221Z,97439.50
2022-09-26T05:32:01.288Z,97431.34
2022-09-26T05:34:31.928Z,97437.81
2022-09-26T05:36:59.299Z,97443.94
2022-09-26T05:39:44.424Z,97439.22
2022-09-26T05:42:12.463Z,97428.41
2022-09-26T05:44:39.608Z,97425.75
2022-09-26T05:47:07.217Z,97421.78
2022-09-26T05:49:36.069Z,97425.22
2022-09-26T05:52:03.910Z,97423.91
2022-09-26T05:54:31.047Z,97420.75
2022-09-26T05:56:58.653Z,97420.25
2022-09-26T05:59:46.670Z,97419.34
2022-09-26T06:02:33.445Z,97429.63
2022-09-26T06:05:12.679Z,97430.41
2022-09-26T06:07:59.557Z,97400.41
2022-09-26T06:10:51.993Z,97430.75
2022-09-26T06:13:21.806Z,97422.34
2022-09-26T06:15:49.902Z,97429.63
2022-09-26T06:18:16.468Z,97420.66
2022-09-26T06:20:43.127Z,97422.06
2022-09-26T06:23:10.818Z,97419.22
2022-09-26T06:25:38.326Z,97410.50
2022-09-26T06:28:06.025Z,97409.53
2022-09-26T06:30:35.397Z,97396.72
2022-09-26T06:33:11.531Z,97394.53
2022-09-26T06:36:03.641Z,97396.19
2022-09-26T06:38:34.400Z,97388.66
2022-09-26T06:41:02.090Z,97393.72
2022-09-26T06:43:29.338Z,97383.91
2022-09-26T06:46:20.470Z,97388.72
2022-09-26T06:48:57.761Z,97372.13
2022-09-26T06:51:41.850Z,97375.91
2022-09-26T06:54:09.800Z,97366.25
2022-09-26T06:56:36.157Z,97356.78
2022-09-26T06:59:03.826Z,97367.63
2022-09-26T07:01:33.284Z,97351.38
2022-09-26T07:04:09.537Z,97350.91
2022-09-26T07:06:45.774Z,97345.31
2022-09-26T07:09:12.981Z,97348.81
2022-09-26T07:12:13.988Z,97337.28
2022-09-26T07:14:37.819Z,97341.06
2022-09-26T07:17:18.062Z,97343.97
2022-09-26T07:19:57.244Z,97349.31
2022-09-26T07:22:46.277Z,97341.22
2022-09-26T07:25:13.947Z,97338.47
2022-09-26T07:27:40.827Z,97327.69
2022-09-26T07:30:09.066Z,97340.28
2022-09-26T07:32:47.800Z,97334.88
2022-09-26T07:35:34.146Z,97331.03
2022-09-26T07:38:01.114Z,97328.28
2022-09-26T07:40:28.503Z,97336.00
2022-09-26T07:43:18.525Z,97331.06
2022-09-26T07:46:05.481Z,97335.22
2022-09-26T07:48:50.680Z,97333.69
2022-09-26T07:51:36.910Z,97336.47
2022-09-26T07:54:06.250Z,97332.97
2022-09-26T07:57:10.822Z,97340.78
2022-09-26T07:59:57.586Z,97330.03
2022-09-26T08:02:45.166Z,97330.53
2022-09-26T08:05:20.350Z,97324.66
2022-09-26T08:07:48.730Z,97323.53
2022-09-26T08:10:35.040Z,97312.00
2022-09-26T08:13:20.737Z,97320.28
2022-09-26T08:16:06.229Z,97306.84
2022-09-26T08:18:37.861Z,97312.53
2022-09-26T08:21:05.683Z,97305.59
2022-09-26T08:23:33.362Z,97287.91
2022-09-26T08:26:23.819Z,97314.44
2022-09-26T08:28:59.888Z,97311.25
2022-09-26T08:31:26.679Z,97311.75
2022-09-26T08:33:56.669Z,97325.63
2022-09-26T08:36:23.153Z,97303.69
2022-09-26T08:39:13.803Z,97306.38
2022-09-26T08:42:40.686Z,97304.22
2022-09-26T08:46:11.916Z,97294.59
2022-09-26T08:49:21.471Z,97298.88
2022-09-26T08:51:51.901Z,97305.38
2022-09-26T08:54:33.193Z,97300.56
2022-09-26T08:57:05.854Z,97305.41
2022-09-26T08:59:42.006Z,97296.00
2022-09-26T09:02:39.397Z,97297.06
2022-09-26T09:05:19.749Z,97290.38
2022-09-26T09:07:50.177Z,97273.75
2022-09-26T09:10:21.607Z,97284.47
2022-09-26T09:13:05.966Z,97293.03
2022-09-26T09:16:18.381Z,97291.41
2022-09-26T09:19:36.262Z,97295.16
2022-09-26T09:22:40.560Z,97285.78
2022-09-26T09:25:28.045Z,97293.31
2022-09-26T09:28:19.925Z,97288.75
2022-09-26T09:31:06.347Z,97285.47
2022-09-26T09:34:00.335Z,97272.84
2022-09-26T09:36:50.258Z,97277.28
2022-09-26T09:39:33.905Z,97260.63
2022-09-26T09:42:12.046Z,97268.84
2022-09-26T09:44:47.263Z,97260.31
2022-09-26T09:47:16.547Z,97255.47
2022-09-26T09:49:44.670Z,97254.06
2022-09-26T09:52:26.371Z,97246.50
2022-09-26T09:55:19.708Z,97241.88
2022-09-26T09:57:54.054Z,97243.28
2022-09-26T10:00:22.555Z,97232.28
2022-09-26T10:03:26.558Z,97234.69
2022-09-26T10:06:00.613Z,97214.06
2022-09-26T10:08:42.206Z,97218.41
2022-09-26T10:11:34.307Z,97199.38
2022-09-26T10:14:29.488Z,97216.31
2022-09-26T10:17:11.466Z,97219.28
2022-09-26T10:19:45.058Z,97193.84
2022-09-26T10:22:19.059Z,97214.75
2022-09-26T10:24:47.753Z,97226.00
2022-09-26T10:27:37.813Z,97207.56
2022-09-26T10:30:19.861Z,97212.66
2022-09-26T10:32:56.399Z,97199.78
2022-09-26T10:35:44.296Z,97198.19
2022-09-26T10:38:27.813Z,97195.19
2022-09-26T10:41:03.349Z,97193.84
2022-09-26T10:43:35.563Z,97190.94
2022-09-26T10:46:20.759Z,97200.03
2022-09-26T10:49:12.954Z,97189.00
2022-09-26T10:52:19.666Z,97196.53
2022-09-26T10:55:04.140Z,97189.53
2022-09-26T10:57:51.774Z,97189.03
2022-09-26T11:00:42.614Z,97186.84
2022-09-26T11:03:43.180Z,97180.72
2022-09-26T11:06:29.225Z,97176.16
2022-09-26T11:09:05.060Z,97173.19
2022-09-26T11:11:51.110Z,97172.91
2022-09-26T11:14:30.337Z,97184.97
2022-09-26T11:17:08.810Z,97164.88
2022-09-26T11:19:45.697Z,97165.38
2022-09-26T11:22:45.238Z,97157.31
2022-09-26T11:25:24.048Z,97154.38
2022-09-26T11:28:08.556Z,97143.66
2022-09-26T11:31:24.856Z,97139.03
2022-09-26T11:34:16.967Z,97138.50
2022-09-26T11:37:17.906Z,97134.84
2022-09-26T11:39:58.574Z,97124.16
2022-09-26T11:42:43.998Z,97119.06
2022-09-26T11:45:27.237Z,97126.09
2022-09-26T11:48:21.368Z,97118.84
2022-09-26T11:51:24.506Z,97116.44
2022-09-26T11:54:00.827Z,97103.56
2022-09-26T11:56:39.557Z,97094.41
2022-09-26T11:59:24.115Z,97103.28
2022-09-26T12:02:18.386Z,97100.09
2022-09-26T12:05:03.772Z,97097.16
2022-09-26T12:08:15.158Z,97093.19
2022-09-26T12:10:50.519Z,97089.16
2022-09-26T12:13:48.252Z,97093.19
2022-09-26T12:16:52.916Z,97087.56
2022-09-26T12:19:40.043Z,97077.13
2022-09-26T12:22:29.034Z,97074.69
2022-09-26T12:25:22.759Z,97075.50
2022-09-26T12:28:16.764Z,97059.97
2022-09-26T12:31:09.741Z,97062.16
2022-09-26T12:33:51.024Z,97049.28
2022-09-26T12:36:31.207Z,97045.25
2022-09-26T12:39:28.845Z,97047.13
2022-09-26T12:41:55.174Z,97035.38
2022-09-26T12:44:37.526Z,97019.81
2022-09-26T12:47:22.039Z,97024.38
2022-09-26T12:50:00.613Z,97013.41
2022-09-26T12:52:32.937Z,97010.22
2022-09-26T12:55:29.654Z,97006.69
2022-09-26T12:58:24.935Z,97012.00
2022-09-26T13:01:05.024Z,96997.44
2022-09-26T13:03:58.827Z,96972.00
2022-09-26T13:06:49.026Z,96999.88
2022-09-26T13:09:57.168Z,96986.97
2022-09-26T13:13:02.595Z,96984.78
2022-09-26T13:15:35.620Z,96988.53
2022-09-26T13:18:37.489Z,96983.75
2022-09-26T13:21:12.582Z,96981.56
2022-09-26T13:23:48.582Z,96976.25
2022-09-26T13:26:19.575Z,96980.56
2022-09-26T13:29:17.172Z,96968.09
2022-09-26T13:31:55.328Z,96971.38
2022-09-26T13:34:28.120Z,96961.75
2022-09-26T13:36:57.411Z,96963.63
2022-09-26T13:39:26.962Z,96951.03
2022-09-26T13:42:02.824Z,96952.69
2022-09-26T13:44:57.378Z,96949.44
2022-09-26T13:47:33.366Z,96949.41
2022-09-26T13:50:22.235Z,96941.97
2022-09-26T13:53:10.941Z,96872.72
2022-09-26T13:55:37.391Z,96940.59
2022-09-26T13:58:21.091Z,96940.03
2022-09-26T14:00:54.850Z,96943.81
2022-09-26T14:03:23.088Z,96947.56
2022-09-26T14:05:51.504Z,96927.28
2022-09-26T14:08:43.005Z,96923.50
2022-09-26T14:11:19.810Z,96922.97
2022-09-26T14:13:47.641Z,96903.47
2022-09-26T14:16:34.873Z,96905.06
2022-09-26T14:19:10.938Z,96903.72
2022-09-26T14:22:00.542Z,96893.28
2022-09-26T14:24:37.859Z,96909.09
2022-09-26T14:27:10.192Z,96887.91
2022-09-26T14:29:39.416Z,96896.19
2022-09-26T14:32:10.184Z,96886.28
2022-09-26T14:34:55.298Z,96880.13
2022-09-26T14:37:24.668Z,96876.13
2022-09-26T14:40:00.527Z,96865.69
2022-09-26T14:42:36.336Z,96869.97
2022-09-26T14:45:06.468Z,96853.94
2022-09-26T14:47:52.761Z,96852.91
2022-09-26T14:50:25.473Z,96825.88
2022-09-26T14:53:01.968Z,96818.63
2022-09-26T14:55:31.292Z,96836.28
2022-09-26T14:58:46.349Z,96823.16
2022-09-26T15:01:17.934Z,96827.69
2022-09-26T15:03:54.736Z,96815.41
2022-09-26T15:06:22.687Z,96792.44
2022-09-26T15:08:49.547Z,96806.91
2022-09-26T15:11:45.032Z,96805.81
2022-09-26T15:14:21.784Z,96813.28
2022-09-26T15:16:53.211Z,96802.13
2022-09-26T15:19:42.689Z,96807.50
2022-09-26T15:22:16.286Z,96798.34
2022-09-26T15:24:42.887Z,96793.00
2022-09-26T15:27:19.286Z,96787.75
2022-09-26T15:29:51.537Z,96790.41
2022-09-26T15:32:29.552Z,96781.31
2022-09-26T15:34:57.326Z,96777.09
2022-09-26T15:37:32.592Z,96789.13
2022-09-26T15:40:19.483Z,96784.81
2022-09-26T15:42:58.949Z,96788.84
2022-09-26T15:45:33.225Z,96786.16
2022-09-26T15:48:05.330Z,96780.28
2022-09-26T15:50:39.615Z,96784.28
2022-09-26T15:53:27.530Z,96787.78
2022-09-26T15:56:05.969Z,96789.13
2022-09-26T15:58:40.200Z,96782.16
2022-09-26T16:01:08.392Z,96784.56
2022-09-26T16:03:55.254Z,96768.53
2022-09-26T16:06:29.907Z,96769.59
2022-09-26T16:09:19.485Z,96765.31
2022-09-26T16:11:50.123Z,96759.44
2022-09-26T16:14:25.556Z,96759.97
2022-09-26T16:17:01.098Z,96755.41
2022-09-26T16:19:35.590Z,96743.41
2022-09-26T16:22:39.139Z,96749.56
2022-09-26T16:25:25.798Z,96729.25
2022-09-26T16:28:00.743Z,96741.28
2022-09-26T16:30:27.125Z,96737.00
2022-09-26T16:33:16.263Z,96740.22
2022-09-26T16:35:47.736Z,96733.53
2022-09-26T16:38:27.950Z,96731.66
2022-09-26T16:40:56.765Z,96730.06
2022-09-26T16:43:29.328Z,96718.56
2022-09-26T16:46:13.369Z,96696.41
2022-09-26T16:48:51.844Z,96718.03
2022-09-26T16:51:21.257Z,96709.22
2022-09-26T16:54:07.958Z,96707.34
2022-09-26T16:56:38.834Z,96700.69
2022-09-26T16:59:14.061Z,96702.31
2022-09-26T17:01:55.665Z,96698.03
2022-09-26T17:04:28.855Z,96690.00
2022-09-26T17:06:55.353Z,96692.69
2022-09-26T17:09:27.948Z,96695.34
2022-09-26T17:11:57.015Z,96695.06
2022-09-26T17:14:28.500Z,96691.88
2022-09-26T17:16:57.333Z,96679.88
2022-09-26T17:19:27.017Z,96693.75
2022-09-26T17:21:54.851Z,96699.09
2022-09-26T17:24:24.025Z,96702.31
2022-09-26T17:26:59.406Z,96705.75
2022-09-26T17:29:30.322Z,96708.69
2022-09-26T17:31:57.975Z,96706.31
2022-09-26T17:34:27.991Z,96704.44
2022-09-26T17:36:58.107Z,96704.94
2022-09-26T17:39:27.500Z,96696.16
2022-09-26T17:41:57.138Z,96710.81
2022-09-26T17:44:23.632Z,96706.53
2022-09-26T17:46:53.882Z,96709.47
2022-09-26T17:49:27.466Z,96708.09
2022-09-26T17:51:57.074Z,96706.50
2022-09-26T17:54:30.151Z,96626.88
2022-09-26T17:56:56.963Z,96701.41
2022-09-26T17:59:25.633Z,96706.47
2022-09-26T18:01:56.435Z,96702.25
2022-09-26T18:04:26.877Z,96701.72
2022-09-26T18:06:55.986Z,96698.22
2022-09-26T18:09:23.292Z,96679.22
2022-09-26T18:12:00.543Z,96690.69
2022-09-26T18:14:31.152Z,96694.69
2022-09-26T18:16:58.796Z,96697.59
2022-09-26T18:19:25.369Z,96691.44
2022-09-26T18:21:55.566Z,96687.75
2022-09-26T18:24:26.551Z,96684.75
2022-09-26T18:26:56.925Z,96674.78
2022-09-26T18:29:31.956Z,96674.28
2022-09-26T18:31:59.586Z,96678.00
2022-09-26T18:34:25.947Z,96664.56
2022-09-26T18:36:56.797Z,96661.44
2022-09-26T18:39:25.010Z,96659.38
2022-09-26T18:41:58.814Z,96658.75
2022-09-26T18:44:26.156Z,96650.25
2022-09-26T18:46:58.234Z,96648.38
2022-09-26T18:49:30.179Z,96647.03
2022-09-26T18:51:56.877Z,96657.16
2022-09-26T18:54:24.613Z,96650.75
2022-09-26T18:57:09.835Z,96653.84
2022-09-26T18:59:36.272Z,96649.59
2022-09-26T19:02:04.805Z,96647.94
2022-09-26T19:04:31.622Z,96656.94
2022-09-26T19:07:04.729Z,96657.41
2022-09-26T19:09:33.749Z,96651.44
2022-09-26T19:12:01.306Z,96652.09
2022-09-26T19:14:29.803Z,96645.56
2022-09-26T19:16:56.917Z,96645.47
2022-09-26T19:19:24.417Z,96636.44
2022-09-26T19:21:58.129Z,96632.63
2022-09-26T19:24:39.886Z,96625.88
2022-09-26T19:27:26.978Z,96629.03
2022-09-26T19:30:04.784Z,96625.97
2022-09-26T19:32:37.675Z,96626.41
2022-09-26T19:35:32.047Z,96617.44
2022-09-26T19:37:59.766Z,96602.09
2022-09-26T19:40:27.335Z,96605.66
2022-09-26T19:42:55.032Z,96591.47
2022-09-26T19:45:22.117Z,96605.88
2022-09-26T19:47:53.273Z,96612.28
2022-09-26T19:50:25.762Z,96596.06
2022-09-26T19:52:54.976Z,96598.84
2022-09-26T19:55:24.338Z,96600.94
2022-09-26T19:57:52.705Z,96590.56
2022-09-26T20:00:20.037Z,96580.75
2022-09-26T20:02:50.048Z,96587.72
2022-09-26T20:05:25.286Z,96581.56
2022-09-26T20:07:52.507Z,96550.47
2022-09-26T20:10:24.969Z,96572.25
2022-09-26T20:12:51.816Z,96578.13
2022-09-26T20:15:22.591Z,96571.72
2022-09-26T20:17:49.592Z,96573.28
2022-09-26T20:20:22.797Z,96570.97
2022-09-26T20:22:51.584Z,96529.22
2022-09-26T20:25:30.003Z,96553.13
2022-09-26T20:27:57.791Z,96557.47
2022-09-26T20:30:43.629Z,96539.22
2022-09-26T20:33:12.887Z,96550.78
2022-09-26T20:35:43.092Z,96533.22
2022-09-26T20:38:31.955Z,96540.97
2022-09-26T20:41:12.088Z,96539.19
2022-09-26T20:43:39.603Z,96536.75
2022-09-26T20:46:09.451Z,96528.53
2022-09-26T20:48:37.043Z,96502.94
2022-09-26T20:51:12.401Z,96517.28
2022-09-26T20:53:38.799Z,96501.34
2022-09-26T20:56:16.784Z,96519.75
2022-09-26T20:58:44.215Z,96512.94
2022-09-26T21:01:15.424Z,96510.03
2022-09-26T21:03:49.144Z,96507.38
2022-09-26T21:06:21.157Z,96502.06
2022-09-26T21:08:48.475Z,96498.03
2022-09-26T21:11:21.754Z,96489.31
2022-09-26T21:13:48.766Z,96492.41
2022-09-26T21:16:18.229Z,96493.34
2022-09-26T21:18:47.263Z,96492.47
2022-09-26T21:21:17.850Z,96480.84
2022-09-26T21:23:53.652Z,96498.34
2022-09-26T21:26:22.276Z,96490.94
2022-09-26T21:28:50.091Z,96484.16
2022-09-26T21:31:29.545Z,96491.81
2022-09-26T21:33:58.278Z,96482.66
2022-09-26T21:36:32.683Z,96475.44
2022-09-26T21:39:01.654Z,96489.84
2022-09-26T21:41:29.279Z,96458.31
2022-09-26T21:44:00.407Z,96484.00
2022-09-26T21:46:27.586Z,96482.94
2022-09-26T21:48:55.256Z,96480.81
2022-09-26T21:51:25.359Z,96473.59
2022-09-26T21:53:57.539Z,96466.75
2022-09-26T21:56:29.175Z,96463.03
2022-09-26T21:58:56.764Z,96454.00
2022-09-26T22:01:23.930Z,96463.84
2022-09-26T22:03:50.351Z,96450.00
2022-09-26T22:06:16.765Z,96456.63
2022-09-26T22:08:43.283Z,96444.94
2022-09-26T22:11:09.869Z,96453.69
2022-09-26T22:13:37.278Z,96436.09
2022-09-26T22:16:12.872Z,96438.25
2022-09-26T22:18:40.265Z,96435.56
2022-09-26T22:21:09.098Z,96428.66
2022-09-26T22:23:36.359Z,96426.03
2022-09-26T22:26:03.407Z,96418.09
2022-09-26T22:28:30.519Z,96423.91
2022-09-26T22:31:01.769Z,96397.84
2022-09-26T22:33:28.311Z,96420.53
2022-09-26T22:35:54.686Z,96401.88
2022-09-26T22:38:21.277Z,96408.56
2022-09-26T22:41:03.061Z,96407.78
2022-09-26T22:43:30.815Z,96397.41
2022-09-26T22:46:01.297Z,96400.38
2022-09-26T22:48:32.260Z,96401.16
2022-09-26T22:50:58.798Z,96395.00
2022-09-26T22:53:25.385Z,96389.47
2022-09-26T22:55:54.671Z,96388.44
2022-09-26T22:58:25.910Z,96395.59
2022-09-26T23:00:52.385Z,96362.84
2022-09-26T23:03:18.946Z,96386.84
2022-09-26T23:05:50.135Z,96379.13
2022-09-26T23:08:16.593Z,96389.19
2022-09-26T23:10:50.317Z,96381.22
2022-09-26T23:13:17.905Z,96374.84
2022-09-26T23:15:45.145Z,96372.44
2022-09-26T23:18:12.395Z,96379.63
2022-09-26T23:20:43.322Z,96372.41
2022-09-26T23:23:11.850Z,96370.31
2022-09-26T23:25:46.115Z,96373.25
2022-09-26T23:28:12.621Z,96375.41
2022-09-26T23:30:39.382Z,96375.97
2022-09-26T23:33:05.819Z,96373.88
2022-09-26T23:35:32.193Z,96360.25
2022-09-26T23:37:58.818Z,96334.94
2022-09-26T23:40:25.374Z,96350.13
2022-09-26T23:42:51.810Z,96378.16
2022-09-26T23:45:18.267Z,96366.72
2022-09-26T23:47:44.648Z,96367.28
2022-09-26T23:50:11.103Z,96376.06
2022-09-26T23:52:37.542Z,96379.78
2022-09-26T23:55:04.339Z,96367.81
2022-09-26T23:57:30.804Z,96348.63
2022-09-26T23:59:57.220Z,96366.47
